sensor_id;sensor_type;location;lat;lon;timestamp;temperature;humidity
24408;DHT22;12542;50.924;4.516;2022-12-18T00:01:34;-2.30;99.90
24408;DHT22;12542;50.924;4.516;2022-12-18T00:04:05;-2.20;99.90
24408;DHT22;12542;50.924;4.516;2022-12-18T00:06:32;-2.30;99.90
24408;DHT22;12542;50.924;4.516;2022-12-18T00:09:00;-2.30;99.90
24408;DHT22;12542;50.924;4.516;2022-12-18T00:11:29;-2.40;99.90
24408;DHT22;12542;50.924;4.516;2022-12-18T00:13:57;-2.30;99.90
24408;DHT22;12542;50.924;4.516;2022-12-18T00:16:25;-2.30;99.90
24408;DHT22;12542;50.924;4.516;2022-12-18T00:18:54;-2.30;99.90
24408;DHT22;12542;50.924;4.516;2022-12-18T00:21:21;-2.40;99.90
24408;DHT22;12542;50.924;4.516;2022-12-18T00:23:48;-2.40;99.90
24408;DHT22;12542;50.924;4.516;2022-12-18T00:26:19;-2.20;99.90
24408;DHT22;12542;50.924;4.516;2022-12-18T00:28:46;-2.20;99.90
24408;DHT22;12542;50.924;4.516;2022-12-18T00:31:20;-2.60;99.90
24408;DHT22;12542;50.924;4.516;2022-12-18T00:33:49;-2.80;99.90
24408;DHT22;12542;50.924;4.516;2022-12-18T00:36:19;-2.70;99.90
24408;DHT22;12542;50.924;4.516;2022-12-18T00:38:46;-3.00;99.90
24408;DHT22;12542;50.924;4.516;2022-12-18T00:41:14;-2.80;99.90
24408;DHT22;12542;50.924;4.516;2022-12-18T00:44:00;-2.80;99.90
24408;DHT22;12542;50.924;4.516;2022-12-18T00:46:28;-2.90;99.90
24408;DHT22;12542;50.924;4.516;2022-12-18T00:48:53;-3.00;99.90
24408;DHT22;12542;50.924;4.516;2022-12-18T00:51:19;-3.00;99.90
24408;DHT22;12542;50.924;4.516;2022-12-18T00:53:45;-3.20;99.90
24408;DHT22;12542;50.924;4.516;2022-12-18T00:56:10;-3.50;99.90
24408;DHT22;12542;50.924;4.516;2022-12-18T00:58:36;-3.40;99.90
24408;DHT22;12542;50.924;4.516;2022-12-18T01:01:04;-3.30;99.90
24408;DHT22;12542;50.924;4.516;2022-12-18T01:03:30;-3.10;99.90
24408;DHT22;12542;50.924;4.516;2022-12-18T01:05:56;-3.10;99.90
24408;DHT22;12542;50.924;4.516;2022-12-18T01:08:23;-3.20;99.90
24408;DHT22;12542;50.924;4.516;2022-12-18T01:10:49;-3.20;99.90
24408;DHT22;12542;50.924;4.516;2022-12-18T01:13:14;-3.20;99.90
24408;DHT22;12542;50.924;4.516;2022-12-18T01:15:40;-3.20;99.90
24408;DHT22;12542;50.924;4.516;2022-12-18T01:18:07;-3.10;99.90
24408;DHT22;12542;50.924;4.516;2022-12-18T01:20:32;-3.00;99.90
24408;DHT22;12542;50.924;4.516;2022-12-18T01:22:58;-3.20;99.90
24408;DHT22;12542;50.924;4.516;2022-12-18T01:25:24;-3.30;99.90
24408;DHT22;12542;50.924;4.516;2022-12-18T01:27:50;-3.30;99.90
24408;DHT22;12542;50.924;4.516;2022-12-18T01:30:16;-3.20;99.90
24408;DHT22;12542;50.924;4.516;2022-12-18T01:32:42;-3.20;99.90
24408;DHT22;12542;50.924;4.516;2022-12-18T01:38:11;-3.10;99.90
24408;DHT22;12542;50.924;4.516;2022-12-18T01:40:37;-3.00;99.90
24408;DHT22;12542;50.924;4.516;2022-12-18T01:43:04;-3.10;99.90
24408;DHT22;12542;50.924;4.516;2022-12-18T01:45:32;-3.20;99.90
24408;DHT22;12542;50.924;4.516;2022-12-18T01:48:03;-3.00;99.90
24408;DHT22;12542;50.924;4.516;2022-12-18T01:50:41;-2.90;99.90
24408;DHT22;12542;50.924;4.516;2022-12-18T01:53:11;-2.90;99.90
24408;DHT22;12542;50.924;4.516;2022-12-18T01:55:46;-3.00;99.90
24408;DHT22;12542;50.924;4.516;2022-12-18T01:58:13;-3.10;99.90
24408;DHT22;12542;50.924;4.516;2022-12-18T02:00:39;-3.40;99.90
24408;DHT22;12542;50.924;4.516;2022-12-18T02:03:05;-3.50;99.90
24408;DHT22;12542;50.924;4.516;2022-12-18T02:08:21;-3.70;99.90
24408;DHT22;12542;50.924;4.516;2022-12-18T02:11:32;-3.70;99.90
24408;DHT22;12542;50.924;4.516;2022-12-18T02:25:18;-3.70;99.90
24408;DHT22;12542;50.924;4.516;2022-12-18T02:27:47;-3.50;99.90
24408;DHT22;12542;50.924;4.516;2022-12-18T02:30:15;-3.70;99.90
24408;DHT22;12542;50.924;4.516;2022-12-18T02:32:45;-3.60;99.90
24408;DHT22;12542;50.924;4.516;2022-12-18T02:35:23;-3.50;99.90
24408;DHT22;12542;50.924;4.516;2022-12-18T02:37:51;-3.60;99.90
24408;DHT22;12542;50.924;4.516;2022-12-18T02:40:19;-3.80;99.90
24408;DHT22;12542;50.924;4.516;2022-12-18T02:42:44;-3.80;99.90
24408;DHT22;12542;50.924;4.516;2022-12-18T02:45:10;-3.70;99.90
24408;DHT22;12542;50.924;4.516;2022-12-18T02:47:42;-3.60;99.90
24408;DHT22;12542;50.924;4.516;2022-12-18T02:50:35;-3.50;99.90
24408;DHT22;12542;50.924;4.516;2022-12-18T02:56:01;-3.80;99.90
24408;DHT22;12542;50.924;4.516;2022-12-18T02:59:04;-4.00;99.90
24408;DHT22;12542;50.924;4.516;2022-12-18T03:01:37;-3.80;99.90
24408;DHT22;12542;50.924;4.516;2022-12-18T03:04:16;-3.90;99.90
24408;DHT22;12542;50.924;4.516;2022-12-18T03:06:49;-3.90;99.90
24408;DHT22;12542;50.924;4.516;2022-12-18T03:09:20;-3.90;99.90
24408;DHT22;12542;50.924;4.516;2022-12-18T03:11:55;-3.90;99.90
24408;DHT22;12542;50.924;4.516;2022-12-18T03:15:08;-3.90;99.90
24408;DHT22;12542;50.924;4.516;2022-12-18T03:17:36;-3.90;99.90
24408;DHT22;12542;50.924;4.516;2022-12-18T03:20:13;-4.00;99.90
24408;DHT22;12542;50.924;4.516;2022-12-18T03:22:41;-4.10;99.90
24408;DHT22;12542;50.924;4.516;2022-12-18T03:25:11;-3.90;99.90
24408;DHT22;12542;50.924;4.516;2022-12-18T03:27:43;-3.60;99.90
24408;DHT22;12542;50.924;4.516;2022-12-18T03:30:12;-3.80;99.90
24408;DHT22;12542;50.924;4.516;2022-12-18T03:35:10;-4.10;99.90
24408;DHT22;12542;50.924;4.516;2022-12-18T03:37:40;-4.00;99.90
24408;DHT22;12542;50.924;4.516;2022-12-18T03:40:07;-4.00;99.90
24408;DHT22;12542;50.924;4.516;2022-12-18T03:42:46;-4.00;99.90
24408;DHT22;12542;50.924;4.516;2022-12-18T03:45:23;-3.90;99.90
24408;DHT22;12542;50.924;4.516;2022-12-18T03:48:16;-3.90;99.90
24408;DHT22;12542;50.924;4.516;2022-12-18T03:51:22;-3.90;99.90
24408;DHT22;12542;50.924;4.516;2022-12-18T03:53:59;-3.90;99.90
24408;DHT22;12542;50.924;4.516;2022-12-18T03:56:31;-3.80;99.90
24408;DHT22;12542;50.924;4.516;2022-12-18T03:58:59;-3.90;99.90
24408;DHT22;12542;50.924;4.516;2022-12-18T04:01:32;-3.90;99.90
24408;DHT22;12542;50.924;4.516;2022-12-18T04:04:00;-3.80;99.90
24408;DHT22;12542;50.924;4.516;2022-12-18T04:06:28;-3.80;99.90
24408;DHT22;12542;50.924;4.516;2022-12-18T04:08:54;-4.00;99.90
24408;DHT22;12542;50.924;4.516;2022-12-18T04:11:21;-3.70;99.90
24408;DHT22;12542;50.924;4.516;2022-12-18T04:13:46;-3.60;99.90
24408;DHT22;12542;50.924;4.516;2022-12-18T04:16:12;-4.20;99.90
24408;DHT22;12542;50.924;4.516;2022-12-18T04:18:38;-4.30;99.90
24408;DHT22;12542;50.924;4.516;2022-12-18T04:21:03;-4.30;99.90
24408;DHT22;12542;50.924;4.516;2022-12-18T04:23:29;-4.20;99.90
24408;DHT22;12542;50.924;4.516;2022-12-18T04:25:55;-4.20;99.90
24408;DHT22;12542;50.924;4.516;2022-12-18T04:28:21;-4.30;99.90
24408;DHT22;12542;50.924;4.516;2022-12-18T04:30:46;-4.20;99.90
24408;DHT22;12542;50.924;4.516;2022-12-18T04:33:13;-4.10;99.90
24408;DHT22;12542;50.924;4.516;2022-12-18T04:35:40;-4.00;99.90
24408;DHT22;12542;50.924;4.516;2022-12-18T04:38:09;-4.10;99.90
24408;DHT22;12542;50.924;4.516;2022-12-18T04:40:37;-4.10;99.90
24408;DHT22;12542;50.924;4.516;2022-12-18T04:43:06;-4.10;99.90
24408;DHT22;12542;50.924;4.516;2022-12-18T04:45:33;-4.10;99.90
24408;DHT22;12542;50.924;4.516;2022-12-18T04:47:59;-4.30;99.90
24408;DHT22;12542;50.924;4.516;2022-12-18T04:50:26;-4.50;99.90
24408;DHT22;12542;50.924;4.516;2022-12-18T04:52:53;-4.40;99.90
24408;DHT22;12542;50.924;4.516;2022-12-18T04:55:19;-4.30;99.90
24408;DHT22;12542;50.924;4.516;2022-12-18T04:57:45;-4.30;99.90
24408;DHT22;12542;50.924;4.516;2022-12-18T05:00:11;-4.10;99.90
24408;DHT22;12542;50.924;4.516;2022-12-18T05:02:37;-4.10;99.90
24408;DHT22;12542;50.924;4.516;2022-12-18T05:05:03;-4.10;99.90
24408;DHT22;12542;50.924;4.516;2022-12-18T05:07:29;-4.00;99.90
24408;DHT22;12542;50.924;4.516;2022-12-18T05:09:55;-4.10;99.90
24408;DHT22;12542;50.924;4.516;2022-12-18T05:12:23;-4.10;99.90
24408;DHT22;12542;50.924;4.516;2022-12-18T05:14:49;-4.10;99.90
24408;DHT22;12542;50.924;4.516;2022-12-18T05:17:15;-4.10;99.90
24408;DHT22;12542;50.924;4.516;2022-12-18T05:19:41;-4.10;99.90
24408;DHT22;12542;50.924;4.516;2022-12-18T05:22:09;-4.10;99.90
24408;DHT22;12542;50.924;4.516;2022-12-18T05:24:36;-4.10;99.90
24408;DHT22;12542;50.924;4.516;2022-12-18T05:27:01;-4.20;99.90
24408;DHT22;12542;50.924;4.516;2022-12-18T05:29:27;-4.10;99.90
24408;DHT22;12542;50.924;4.516;2022-12-18T05:31:53;-4.20;99.90
24408;DHT22;12542;50.924;4.516;2022-12-18T05:34:19;-4.20;99.90
24408;DHT22;12542;50.924;4.516;2022-12-18T05:36:45;-4.20;99.90
24408;DHT22;12542;50.924;4.516;2022-12-18T05:39:11;-4.60;99.90
24408;DHT22;12542;50.924;4.516;2022-12-18T05:41:37;-4.30;99.90
24408;DHT22;12542;50.924;4.516;2022-12-18T05:44:03;-4.40;99.90
24408;DHT22;12542;50.924;4.516;2022-12-18T05:46:30;-4.40;99.90
24408;DHT22;12542;50.924;4.516;2022-12-18T05:48:59;-4.50;99.90
24408;DHT22;12542;50.924;4.516;2022-12-18T05:51:26;-4.80;99.90
24408;DHT22;12542;50.924;4.516;2022-12-18T05:53:51;-4.90;99.90
24408;DHT22;12542;50.924;4.516;2022-12-18T05:56:21;-5.10;99.90
24408;DHT22;12542;50.924;4.516;2022-12-18T05:58:47;-5.20;99.90
24408;DHT22;12542;50.924;4.516;2022-12-18T06:01:19;-5.20;99.90
24408;DHT22;12542;50.924;4.516;2022-12-18T06:03:46;-5.40;99.90
24408;DHT22;12542;50.924;4.516;2022-12-18T06:06:15;-5.10;99.90
24408;DHT22;12542;50.924;4.516;2022-12-18T06:08:41;-5.00;99.90
24408;DHT22;12542;50.924;4.516;2022-12-18T06:11:08;-5.00;99.90
24408;DHT22;12542;50.924;4.516;2022-12-18T06:13:33;-4.90;99.90
24408;DHT22;12542;50.924;4.516;2022-12-18T06:16:02;-5.00;99.90
24408;DHT22;12542;50.924;4.516;2022-12-18T06:18:29;-5.00;99.90
24408;DHT22;12542;50.924;4.516;2022-12-18T06:20:56;-4.80;99.90
24408;DHT22;12542;50.924;4.516;2022-12-18T06:23:22;-4.70;99.90
24408;DHT22;12542;50.924;4.516;2022-12-18T06:25:48;-4.60;99.90
24408;DHT22;12542;50.924;4.516;2022-12-18T06:28:14;-4.60;99.90
24408;DHT22;12542;50.924;4.516;2022-12-18T06:30:39;-4.60;99.90
24408;DHT22;12542;50.924;4.516;2022-12-18T06:33:05;-4.60;99.90
24408;DHT22;12542;50.924;4.516;2022-12-18T06:35:32;-4.50;99.90
24408;DHT22;12542;50.924;4.516;2022-12-18T06:37:59;-4.50;99.90
24408;DHT22;12542;50.924;4.516;2022-12-18T06:40:26;-4.90;99.90
24408;DHT22;12542;50.924;4.516;2022-12-18T06:42:51;-4.70;99.90
24408;DHT22;12542;50.924;4.516;2022-12-18T06:45:17;-4.60;99.90
24408;DHT22;12542;50.924;4.516;2022-12-18T06:47:45;-4.60;99.90
24408;DHT22;12542;50.924;4.516;2022-12-18T06:50:13;-4.50;99.90
24408;DHT22;12542;50.924;4.516;2022-12-18T06:52:39;-4.50;99.90
24408;DHT22;12542;50.924;4.516;2022-12-18T06:55:09;-4.40;99.90
24408;DHT22;12542;50.924;4.516;2022-12-18T06:57:36;-4.30;99.90
24408;DHT22;12542;50.924;4.516;2022-12-18T07:00:03;-4.20;99.90
24408;DHT22;12542;50.924;4.516;2022-12-18T07:02:29;-4.10;99.90
24408;DHT22;12542;50.924;4.516;2022-12-18T07:04:55;-4.30;99.90
24408;DHT22;12542;50.924;4.516;2022-12-18T07:07:20;-4.10;99.90
24408;DHT22;12542;50.924;4.516;2022-12-18T07:09:46;-4.20;99.90
24408;DHT22;12542;50.924;4.516;2022-12-18T07:12:12;-4.20;99.90
24408;DHT22;12542;50.924;4.516;2022-12-18T07:14:38;-4.20;99.90
24408;DHT22;12542;50.924;4.516;2022-12-18T07:17:03;-4.30;99.90
24408;DHT22;12542;50.924;4.516;2022-12-18T07:19:29;-4.20;99.90
24408;DHT22;12542;50.924;4.516;2022-12-18T07:21:55;-4.20;99.90
24408;DHT22;12542;50.924;4.516;2022-12-18T07:24:21;-4.20;99.90
24408;DHT22;12542;50.924;4.516;2022-12-18T07:26:47;-4.10;99.90
24408;DHT22;12542;50.924;4.516;2022-12-18T07:29:13;-4.10;99.90
24408;DHT22;12542;50.924;4.516;2022-12-18T07:31:38;-4.00;99.90
24408;DHT22;12542;50.924;4.516;2022-12-18T07:34:04;-3.90;99.90
24408;DHT22;12542;50.924;4.516;2022-12-18T07:36:31;-3.80;99.90
24408;DHT22;12542;50.924;4.516;2022-12-18T07:38:57;-3.70;99.90
24408;DHT22;12542;50.924;4.516;2022-12-18T07:41:23;-3.70;99.90
24408;DHT22;12542;50.924;4.516;2022-12-18T07:43:49;-3.70;99.90
24408;DHT22;12542;50.924;4.516;2022-12-18T07:46:16;-3.70;99.90
24408;DHT22;12542;50.924;4.516;2022-12-18T07:48:43;-3.70;99.90
24408;DHT22;12542;50.924;4.516;2022-12-18T07:51:09;-3.60;99.90
24408;DHT22;12542;50.924;4.516;2022-12-18T07:53:35;-3.50;99.90
24408;DHT22;12542;50.924;4.516;2022-12-18T07:56:07;-3.50;99.90
24408;DHT22;12542;50.924;4.516;2022-12-18T07:58:34;-3.80;99.90
24408;DHT22;12542;50.924;4.516;2022-12-18T08:01:08;-3.80;99.90
24408;DHT22;12542;50.924;4.516;2022-12-18T08:03:34;-3.70;99.90
24408;DHT22;12542;50.924;4.516;2022-12-18T08:06:05;-3.50;99.90
24408;DHT22;12542;50.924;4.516;2022-12-18T08:08:34;-3.40;99.90
24408;DHT22;12542;50.924;4.516;2022-12-18T08:11:00;-3.30;99.90
24408;DHT22;12542;50.924;4.516;2022-12-18T08:13:27;-3.20;99.90
24408;DHT22;12542;50.924;4.516;2022-12-18T08:16:11;-2.90;99.90
24408;DHT22;12542;50.924;4.516;2022-12-18T08:18:37;-2.70;99.90
24408;DHT22;12542;50.924;4.516;2022-12-18T08:21:12;-2.30;99.90
24408;DHT22;12542;50.924;4.516;2022-12-18T08:23:37;-1.90;99.90
24408;DHT22;12542;50.924;4.516;2022-12-18T08:26:04;-1.70;99.90
24408;DHT22;12542;50.924;4.516;2022-12-18T08:28:30;-1.30;99.90
24408;DHT22;12542;50.924;4.516;2022-12-18T08:30:55;-1.30;99.90
24408;DHT22;12542;50.924;4.516;2022-12-18T08:33:21;-0.90;99.90
24408;DHT22;12542;50.924;4.516;2022-12-18T08:35:47;-0.70;99.90
24408;DHT22;12542;50.924;4.516;2022-12-18T08:38:13;-0.40;99.90
24408;DHT22;12542;50.924;4.516;2022-12-18T08:40:39;0.40;99.90
24408;DHT22;12542;50.924;4.516;2022-12-18T08:43:09;0.70;99.90
24408;DHT22;12542;50.924;4.516;2022-12-18T08:45:54;1.50;99.90
24408;DHT22;12542;50.924;4.516;2022-12-18T08:48:20;1.90;99.90
24408;DHT22;12542;50.924;4.516;2022-12-18T08:50:59;1.70;99.90
24408;DHT22;12542;50.924;4.516;2022-12-18T08:53:25;1.00;99.90
24408;DHT22;12542;50.924;4.516;2022-12-18T08:55:51;1.10;99.90
24408;DHT22;12542;50.924;4.516;2022-12-18T08:58:17;1.00;99.90
24408;DHT22;12542;50.924;4.516;2022-12-18T09:00:43;1.20;99.90
24408;DHT22;12542;50.924;4.516;2022-12-18T09:03:13;1.10;99.90
24408;DHT22;12542;50.924;4.516;2022-12-18T09:05:39;1.10;99.90
24408;DHT22;12542;50.924;4.516;2022-12-18T09:08:06;0.80;99.90
24408;DHT22;12542;50.924;4.516;2022-12-18T09:10:32;0.90;99.90
24408;DHT22;12542;50.924;4.516;2022-12-18T09:12:57;1.20;99.90
24408;DHT22;12542;50.924;4.516;2022-12-18T09:15:24;1.10;99.90
24408;DHT22;12542;50.924;4.516;2022-12-18T09:17:49;1.10;99.90
24408;DHT22;12542;50.924;4.516;2022-12-18T09:20:16;0.70;99.90
24408;DHT22;12542;50.924;4.516;2022-12-18T09:22:42;0.30;99.90
24408;DHT22;12542;50.924;4.516;2022-12-18T09:25:10;0.10;99.90
24408;DHT22;12542;50.924;4.516;2022-12-18T09:27:36;0.10;99.90
24408;DHT22;12542;50.924;4.516;2022-12-18T09:30:03;0.10;99.90
24408;DHT22;12542;50.924;4.516;2022-12-18T09:32:28;-0.10;99.90
24408;DHT22;12542;50.924;4.516;2022-12-18T09:34:54;-0.60;99.90
24408;DHT22;12542;50.924;4.516;2022-12-18T09:37:20;-0.80;99.90
24408;DHT22;12542;50.924;4.516;2022-12-18T09:39:46;-0.90;99.90
24408;DHT22;12542;50.924;4.516;2022-12-18T09:42:20;-0.90;99.90
24408;DHT22;12542;50.924;4.516;2022-12-18T09:44:52;-0.70;99.90
24408;DHT22;12542;50.924;4.516;2022-12-18T09:47:23;-0.70;99.90
24408;DHT22;12542;50.924;4.516;2022-12-18T09:49:53;-0.80;99.90
24408;DHT22;12542;50.924;4.516;2022-12-18T09:55:03;-0.90;99.90
24408;DHT22;12542;50.924;4.516;2022-12-18T09:57:33;-0.70;99.90
24408;DHT22;12542;50.924;4.516;2022-12-18T10:00:11;-0.70;99.90
24408;DHT22;12542;50.924;4.516;2022-12-18T10:02:40;-0.70;99.90
24408;DHT22;12542;50.924;4.516;2022-12-18T10:05:17;-0.60;99.90
24408;DHT22;12542;50.924;4.516;2022-12-18T10:13:30;-0.30;99.90
24408;DHT22;12542;50.924;4.516;2022-12-18T10:16:17;-0.40;99.90
24408;DHT22;12542;50.924;4.516;2022-12-18T10:19:01;-0.50;99.90
24408;DHT22;12542;50.924;4.516;2022-12-18T10:21:37;-0.40;99.90
24408;DHT22;12542;50.924;4.516;2022-12-18T10:26:36;-0.30;99.90
24408;DHT22;12542;50.924;4.516;2022-12-18T10:29:16;-0.20;99.90
24408;DHT22;12542;50.924;4.516;2022-12-18T10:31:43;-0.50;99.90
24408;DHT22;12542;50.924;4.516;2022-12-18T10:34:12;-0.40;99.90
24408;DHT22;12542;50.924;4.516;2022-12-18T10:36:38;-0.20;99.90
24408;DHT22;12542;50.924;4.516;2022-12-18T10:39:22;-0.10;99.90
24408;DHT22;12542;50.924;4.516;2022-12-18T10:41:48;-0.10;99.90
24408;DHT22;12542;50.924;4.516;2022-12-18T10:44:22;-0.30;99.90
24408;DHT22;12542;50.924;4.516;2022-12-18T10:46:50;-0.30;99.90
24408;DHT22;12542;50.924;4.516;2022-12-18T10:49:30;-0.20;99.90
24408;DHT22;12542;50.924;4.516;2022-12-18T10:52:18;-0.10;99.90
24408;DHT22;12542;50.924;4.516;2022-12-18T10:54:53;-0.10;99.90
24408;DHT22;12542;50.924;4.516;2022-12-18T11:00:29;0.00;99.90
24408;DHT22;12542;50.924;4.516;2022-12-18T11:02:56;0.10;99.90
24408;DHT22;12542;50.924;4.516;2022-12-18T11:05:34;0.40;99.90
24408;DHT22;12542;50.924;4.516;2022-12-18T11:08:02;0.40;99.90
24408;DHT22;12542;50.924;4.516;2022-12-18T11:10:29;0.20;99.90
24408;DHT22;12542;50.924;4.516;2022-12-18T11:12:56;0.30;99.90
24408;DHT22;12542;50.924;4.516;2022-12-18T11:15:34;0.30;99.90
24408;DHT22;12542;50.924;4.516;2022-12-18T11:17:59;0.50;99.90
24408;DHT22;12542;50.924;4.516;2022-12-18T11:20:34;0.70;99.90
24408;DHT22;12542;50.924;4.516;2022-12-18T11:23:21;0.80;99.90
24408;DHT22;12542;50.924;4.516;2022-12-18T11:25:57;0.80;99.90
24408;DHT22;12542;50.924;4.516;2022-12-18T11:28:39;0.80;99.90
24408;DHT22;12542;50.924;4.516;2022-12-18T11:36:41;0.90;99.90
24408;DHT22;12542;50.924;4.516;2022-12-18T11:41:56;1.20;99.90
24408;DHT22;12542;50.924;4.516;2022-12-18T11:47:31;1.20;99.90
24408;DHT22;12542;50.924;4.516;2022-12-18T11:50:00;1.30;99.90
24408;DHT22;12542;50.924;4.516;2022-12-18T11:52:36;1.20;99.90
24408;DHT22;12542;50.924;4.516;2022-12-18T11:55:15;1.30;99.90
24408;DHT22;12542;50.924;4.516;2022-12-18T12:00:18;1.50;99.90
24408;DHT22;12542;50.924;4.516;2022-12-18T12:08:24;1.50;99.90
24408;DHT22;12542;50.924;4.516;2022-12-18T12:19:48;1.90;99.90
24408;DHT22;12542;50.924;4.516;2022-12-18T12:40:37;1.80;99.90
24408;DHT22;12542;50.924;4.516;2022-12-18T12:46:10;2.20;99.90
24408;DHT22;12542;50.924;4.516;2022-12-18T12:48:50;2.30;99.90
24408;DHT22;12542;50.924;4.516;2022-12-18T12:51:24;2.30;99.90
24408;DHT22;12542;50.924;4.516;2022-12-18T12:53:52;2.20;99.90
24408;DHT22;12542;50.924;4.516;2022-12-18T12:56:20;2.10;99.90
24408;DHT22;12542;50.924;4.516;2022-12-18T12:59:02;2.10;99.90
24408;DHT22;12542;50.924;4.516;2022-12-18T13:04:25;2.20;99.90
24408;DHT22;12542;50.924;4.516;2022-12-18T13:07:18;2.10;99.90
24408;DHT22;12542;50.924;4.516;2022-12-18T13:10:22;2.30;99.90
24408;DHT22;12542;50.924;4.516;2022-12-18T13:12:58;2.20;99.90
24408;DHT22;12542;50.924;4.516;2022-12-18T13:34:24;2.00;99.90
24408;DHT22;12542;50.924;4.516;2022-12-18T13:36:51;1.90;99.90
24408;DHT22;12542;50.924;4.516;2022-12-18T13:39:21;2.00;99.90
24408;DHT22;12542;50.924;4.516;2022-12-18T13:42:38;1.90;99.90
24408;DHT22;12542;50.924;4.516;2022-12-18T13:44:58;1.70;99.90
24408;DHT22;12542;50.924;4.516;2022-12-18T13:47:36;1.70;99.90
24408;DHT22;12542;50.924;4.516;2022-12-18T13:50:24;1.90;99.90
24408;DHT22;12542;50.924;4.516;2022-12-18T13:52:52;1.90;99.90
24408;DHT22;12542;50.924;4.516;2022-12-18T13:55:20;1.80;99.90
24408;DHT22;12542;50.924;4.516;2022-12-18T13:57:46;1.80;99.90
24408;DHT22;12542;50.924;4.516;2022-12-18T14:00:27;1.70;99.90
24408;DHT22;12542;50.924;4.516;2022-12-18T14:02:55;1.70;99.90
24408;DHT22;12542;50.924;4.516;2022-12-18T14:05:30;1.60;99.90
24408;DHT22;12542;50.924;4.516;2022-12-18T14:08:04;1.50;99.90
24408;DHT22;12542;50.924;4.516;2022-12-18T14:10:32;1.50;99.90
24408;DHT22;12542;50.924;4.516;2022-12-18T14:13:06;1.60;99.90
24408;DHT22;12542;50.924;4.516;2022-12-18T14:15:40;1.50;99.90
24408;DHT22;12542;50.924;4.516;2022-12-18T14:18:36;1.50;99.90
24408;DHT22;12542;50.924;4.516;2022-12-18T14:21:03;1.50;99.90
24408;DHT22;12542;50.924;4.516;2022-12-18T14:23:38;1.50;99.90
24408;DHT22;12542;50.924;4.516;2022-12-18T14:26:24;1.50;99.90
24408;DHT22;12542;50.924;4.516;2022-12-18T14:28:52;1.60;99.90
24408;DHT22;12542;50.924;4.516;2022-12-18T14:31:27;1.60;99.90
24408;DHT22;12542;50.924;4.516;2022-12-18T14:33:53;1.60;99.90
24408;DHT22;12542;50.924;4.516;2022-12-18T14:36:25;1.70;99.90
24408;DHT22;12542;50.924;4.516;2022-12-18T14:38:59;1.70;99.90
24408;DHT22;12542;50.924;4.516;2022-12-18T14:41:25;1.70;99.90
24408;DHT22;12542;50.924;4.516;2022-12-18T14:43:53;1.70;99.90
24408;DHT22;12542;50.924;4.516;2022-12-18T14:46:28;1.60;99.90
24408;DHT22;12542;50.924;4.516;2022-12-18T14:48:54;1.60;99.90
24408;DHT22;12542;50.924;4.516;2022-12-18T14:51:27;1.50;99.90
24408;DHT22;12542;50.924;4.516;2022-12-18T14:54:02;1.50;99.90
24408;DHT22;12542;50.924;4.516;2022-12-18T14:58:56;1.50;99.90
24408;DHT22;12542;50.924;4.516;2022-12-18T15:01:26;1.60;99.90
24408;DHT22;12542;50.924;4.516;2022-12-18T15:03:54;1.50;99.90
24408;DHT22;12542;50.924;4.516;2022-12-18T15:06:35;1.60;99.90
24408;DHT22;12542;50.924;4.516;2022-12-18T15:09:24;1.60;99.90
24408;DHT22;12542;50.924;4.516;2022-12-18T15:11:58;1.60;99.90
24408;DHT22;12542;50.924;4.516;2022-12-18T15:14:40;1.70;99.90
24408;DHT22;12542;50.924;4.516;2022-12-18T15:17:19;1.70;99.90
24408;DHT22;12542;50.924;4.516;2022-12-18T15:19:46;1.60;99.90
24408;DHT22;12542;50.924;4.516;2022-12-18T15:22:34;1.60;99.90
24408;DHT22;12542;50.924;4.516;2022-12-18T15:25:02;1.60;99.90
24408;DHT22;12542;50.924;4.516;2022-12-18T15:27:34;1.70;99.90
24408;DHT22;12542;50.924;4.516;2022-12-18T15:35:39;1.60;99.90
24408;DHT22;12542;50.924;4.516;2022-12-18T15:38:07;1.50;99.90
24408;DHT22;12542;50.924;4.516;2022-12-18T15:40:33;1.50;99.90
24408;DHT22;12542;50.924;4.516;2022-12-18T15:42:58;1.50;99.90
24408;DHT22;12542;50.924;4.516;2022-12-18T15:45:42;1.50;99.90
24408;DHT22;12542;50.924;4.516;2022-12-18T15:48:21;1.50;99.90
24408;DHT22;12542;50.924;4.516;2022-12-18T15:50:50;1.40;99.90
24408;DHT22;12542;50.924;4.516;2022-12-18T15:53:17;1.50;99.90
24408;DHT22;12542;50.924;4.516;2022-12-18T15:55:43;1.40;99.90
24408;DHT22;12542;50.924;4.516;2022-12-18T15:58:27;1.40;99.90
24408;DHT22;12542;50.924;4.516;2022-12-18T16:00:55;1.60;99.90
24408;DHT22;12542;50.924;4.516;2022-12-18T16:03:22;1.70;99.90
24408;DHT22;12542;50.924;4.516;2022-12-18T16:05:48;1.60;99.90
24408;DHT22;12542;50.924;4.516;2022-12-18T16:08:14;1.60;99.90
24408;DHT22;12542;50.924;4.516;2022-12-18T16:10:40;1.70;99.90
24408;DHT22;12542;50.924;4.516;2022-12-18T16:13:09;1.80;99.90
24408;DHT22;12542;50.924;4.516;2022-12-18T16:15:35;1.70;99.90
24408;DHT22;12542;50.924;4.516;2022-12-18T16:18:01;1.60;99.90
24408;DHT22;12542;50.924;4.516;2022-12-18T16:20:27;1.70;99.90
24408;DHT22;12542;50.924;4.516;2022-12-18T16:22:52;1.60;99.90
24408;DHT22;12542;50.924;4.516;2022-12-18T16:25:21;1.60;99.90
24408;DHT22;12542;50.924;4.516;2022-12-18T16:27:48;1.60;99.90
24408;DHT22;12542;50.924;4.516;2022-12-18T16:30:25;1.70;99.90
24408;DHT22;12542;50.924;4.516;2022-12-18T16:32:53;1.60;99.90
24408;DHT22;12542;50.924;4.516;2022-12-18T16:35:19;1.60;99.90
24408;DHT22;12542;50.924;4.516;2022-12-18T16:37:46;1.50;99.90
24408;DHT22;12542;50.924;4.516;2022-12-18T16:40:14;1.50;99.90
24408;DHT22;12542;50.924;4.516;2022-12-18T16:42:42;1.60;99.90
24408;DHT22;12542;50.924;4.516;2022-12-18T16:45:11;1.50;99.90
24408;DHT22;12542;50.924;4.516;2022-12-18T16:47:37;1.60;99.90
24408;DHT22;12542;50.924;4.516;2022-12-18T16:50:04;1.60;99.90
24408;DHT22;12542;50.924;4.516;2022-12-18T16:52:30;1.70;99.90
24408;DHT22;12542;50.924;4.516;2022-12-18T16:54:56;1.70;99.90
24408;DHT22;12542;50.924;4.516;2022-12-18T16:57:22;1.60;99.90
24408;DHT22;12542;50.924;4.516;2022-12-18T16:59:49;1.60;99.90
24408;DHT22;12542;50.924;4.516;2022-12-18T17:02:25;1.70;99.90
24408;DHT22;12542;50.924;4.516;2022-12-18T17:04:53;1.70;99.90
24408;DHT22;12542;50.924;4.516;2022-12-18T17:07:20;1.70;99.90
24408;DHT22;12542;50.924;4.516;2022-12-18T17:09:46;1.70;99.90
24408;DHT22;12542;50.924;4.516;2022-12-18T17:12:12;1.70;99.90
24408;DHT22;12542;50.924;4.516;2022-12-18T17:14:37;1.70;99.90
24408;DHT22;12542;50.924;4.516;2022-12-18T17:17:03;1.70;99.90
24408;DHT22;12542;50.924;4.516;2022-12-18T17:19:29;1.70;99.90
24408;DHT22;12542;50.924;4.516;2022-12-18T17:21:55;1.50;99.90
24408;DHT22;12542;50.924;4.516;2022-12-18T17:24:22;1.60;99.90
24408;DHT22;12542;50.924;4.516;2022-12-18T17:26:47;1.70;99.90
24408;DHT22;12542;50.924;4.516;2022-12-18T17:29:17;1.70;99.90
24408;DHT22;12542;50.924;4.516;2022-12-18T17:31:44;1.70;99.90
24408;DHT22;12542;50.924;4.516;2022-12-18T17:34:10;1.70;99.90
24408;DHT22;12542;50.924;4.516;2022-12-18T17:36:36;1.70;99.90
24408;DHT22;12542;50.924;4.516;2022-12-18T17:39:04;1.80;99.90
24408;DHT22;12542;50.924;4.516;2022-12-18T17:41:30;1.70;99.90
24408;DHT22;12542;50.924;4.516;2022-12-18T17:44:02;1.80;99.90
24408;DHT22;12542;50.924;4.516;2022-12-18T17:46:30;1.80;99.90
24408;DHT22;12542;50.924;4.516;2022-12-18T17:48:58;1.80;99.90
24408;DHT22;12542;50.924;4.516;2022-12-18T17:51:24;1.70;99.90